createdAt,value
2019-03-23T00:00:14.531Z,24.20
2019-03-23T00:01:17.931Z,24.20
2019-03-23T00:02:23.723Z,24.20
2019-03-23T00:03:27.416Z,24.20
2019-03-23T00:04:30.622Z,24.20
2019-03-23T00:05:33.866Z,24.20
2019-03-23T00:06:37.239Z,24.20
2019-03-23T00:07:40.470Z,24.20
2019-03-23T00:08:43.711Z,24.20
2019-03-23T00:09:47.012Z,24.20
2019-03-23T00:10:51.076Z,24.10
2019-03-23T00:11:56.221Z,24.10
2019-03-23T00:13:02.085Z,24.10
2019-03-23T00:14:05.335Z,24.10
2019-03-23T00:15:11.043Z,24.10
2019-03-23T00:16:15.296Z,24.10
2019-03-23T00:17:18.579Z,24.10
2019-03-23T00:18:21.810Z,24.10
2019-03-23T00:19:25.098Z,24.10
2019-03-23T00:20:29.144Z,24.10
2019-03-23T00:21:33.868Z,24.10
2019-03-23T00:22:37.119Z,24.10
2019-03-23T00:23:42.788Z,24.10
2019-03-23T00:24:46.099Z,24.20
2019-03-23T00:25:52.087Z,24.20
2019-03-23T00:26:55.292Z,24.10
2019-03-23T00:27:58.812Z,24.20
2019-03-23T00:29:02.125Z,24.20
2019-03-23T00:30:12.384Z,24.20
2019-03-23T00:31:15.595Z,24.20
2019-03-23T00:32:18.923Z,24.20
2019-03-23T00:33:25.647Z,24.20
2019-03-23T00:34:28.864Z,24.20
2019-03-23T00:35:32.104Z,24.20
2019-03-23T00:36:41.531Z,24.20
2019-03-23T00:37:40.531Z,24.30
2019-03-23T00:38:43.836Z,24.20
2019-03-23T00:39:47.120Z,24.10
2019-03-23T00:40:56.851Z,24.10
2019-03-23T00:42:00.446Z,24.20
2019-03-23T00:43:03.650Z,24.10
2019-03-23T00:44:07.586Z,24.10
2019-03-23T00:45:10.975Z,24.10
2019-03-23T00:46:14.206Z,24.20
2019-03-23T00:47:17.443Z,24.20
2019-03-23T00:48:20.718Z,24.20
2019-03-23T00:49:24.019Z,24.20
2019-03-23T00:50:27.355Z,24.10
2019-03-23T00:51:33.570Z,24.10
2019-03-23T00:52:36.813Z,24.20
2019-03-23T00:53:40.483Z,24.10
2019-03-23T00:54:43.763Z,24.20
2019-03-23T00:55:49.892Z,24.10
2019-03-23T00:56:53.459Z,24.10
2019-03-23T00:57:56.674Z,24.10
2019-03-23T00:59:00.289Z,24.10
2019-03-23T01:00:06.447Z,24.10
2019-03-23T01:01:15.352Z,24.10
2019-03-23T01:02:19.020Z,24.10
2019-03-23T01:03:22.467Z,24.10
2019-03-23T01:04:25.707Z,24.10
2019-03-23T01:05:32.321Z,24.10
2019-03-23T01:06:36.422Z,24.10
2019-03-23T01:07:39.735Z,24.10
2019-03-23T01:08:42.977Z,24.10
2019-03-23T01:09:46.267Z,24.00
2019-03-23T01:10:49.575Z,24.10
2019-03-23T01:11:53.196Z,24.10
2019-03-23T01:12:56.482Z,24.00
2019-03-23T01:13:59.718Z,24.00
2019-03-23T01:15:05.403Z,24.00
2019-03-23T01:16:08.607Z,23.90
2019-03-23T01:17:11.880Z,24.00
2019-03-23T01:18:15.432Z,24.00
2019-03-23T01:19:18.658Z,24.10
2019-03-23T01:20:24.475Z,24.00
2019-03-23T01:21:27.718Z,24.10
2019-03-23T01:22:34.115Z,24.00
2019-03-23T01:23:39.223Z,24.10
2019-03-23T01:24:42.519Z,24.10
2019-03-23T01:25:46.104Z,24.10
2019-03-23T01:26:49.380Z,24.10
2019-03-23T01:27:52.690Z,24.10
2019-03-23T01:28:56.060Z,24.10
2019-03-23T01:29:59.309Z,24.00
2019-03-23T01:31:02.960Z,24.00
2019-03-23T01:32:07.111Z,24.00
2019-03-23T01:33:13.418Z,24.00
2019-03-23T01:34:16.770Z,24.00
2019-03-23T01:35:21.811Z,24.00
2019-03-23T01:36:25.400Z,24.10
2019-03-23T01:37:30.827Z,24.10
2019-03-23T01:38:34.424Z,24.00
2019-03-23T01:39:40.321Z,24.00
2019-03-23T01:40:44.420Z,24.10
2019-03-23T01:41:47.659Z,24.10
2019-03-23T01:42:50.893Z,24.10
2019-03-23T01:43:57.384Z,24.10
2019-03-23T01:45:01.565Z,24.10
2019-03-23T01:46:04.774Z,24.10
2019-03-23T01:47:08.071Z,24.00
2019-03-23T01:48:14.351Z,24.10
2019-03-23T01:49:17.591Z,24.10
2019-03-23T01:50:20.902Z,24.00
2019-03-23T01:51:24.110Z,24.10
2019-03-23T01:52:27.647Z,24.10
2019-03-23T01:53:30.871Z,24.10
2019-03-23T01:54:34.286Z,24.10
2019-03-23T01:55:37.539Z,24.10
2019-03-23T01:56:41.982Z,24.10
2019-03-23T01:57:45.327Z,24.10
2019-03-23T01:58:48.537Z,24.00
2019-03-23T01:59:51.800Z,24.00
2019-03-23T02:00:55.007Z,24.10
2019-03-23T02:01:58.227Z,24.00
2019-03-23T02:03:02.136Z,24.00
2019-03-23T02:04:05.346Z,24.00
2019-03-23T02:05:10.610Z,24.00
2019-03-23T02:06:13.847Z,24.00
2019-03-23T02:07:21.663Z,24.00
2019-03-23T02:08:24.904Z,24.00
2019-03-23T02:09:31.204Z,24.00
2019-03-23T02:10:34.590Z,24.00
2019-03-23T02:11:38.119Z,24.00
2019-03-23T02:12:41.811Z,23.90
2019-03-23T02:13:45.015Z,23.90
2019-03-23T02:14:48.247Z,24.00
2019-03-23T02:15:51.491Z,24.00
2019-03-23T02:16:54.800Z,24.00
2019-03-23T02:17:58.334Z,24.00
2019-03-23T02:19:01.658Z,24.10
2019-03-23T02:20:07.353Z,24.10
2019-03-23T02:21:12.427Z,24.00
2019-03-23T02:22:15.630Z,24.10
2019-03-23T02:23:19.587Z,24.00
2019-03-23T02:24:23.175Z,24.00
2019-03-23T02:25:26.401Z,24.00
2019-03-23T02:26:29.632Z,24.00
2019-03-23T02:27:32.935Z,24.00
2019-03-23T02:28:36.498Z,23.90
2019-03-23T02:29:39.807Z,23.90
2019-03-23T02:30:43.160Z,24.00
2019-03-23T02:31:46.399Z,24.00
2019-03-23T02:32:51.399Z,24.00
2019-03-23T02:33:54.623Z,24.00
2019-03-23T02:34:57.868Z,24.00
2019-03-23T02:36:01.217Z,24.00
2019-03-23T02:37:05.315Z,23.90
2019-03-23T02:38:08.560Z,24.00
2019-03-23T02:39:11.779Z,23.90
2019-03-23T02:40:15.199Z,24.00
2019-03-23T02:41:18.455Z,24.00
2019-03-23T02:42:21.794Z,24.00
2019-03-23T02:43:25.035Z,24.00
2019-03-23T02:44:28.382Z,23.90
2019-03-23T02:45:31.752Z,24.00
2019-03-23T02:46:36.224Z,24.00
2019-03-23T02:47:39.485Z,24.00
2019-03-23T02:48:42.712Z,24.00
2019-03-23T02:49:45.952Z,24.00
2019-03-23T02:50:49.469Z,23.90
2019-03-23T02:51:53.772Z,23.90
2019-03-23T02:52:59.716Z,23.90
2019-03-23T02:54:02.997Z,24.00
2019-03-23T02:55:08.790Z,24.00
2019-03-23T02:56:12.662Z,24.00
2019-03-23T02:57:15.991Z,24.00
2019-03-23T02:58:19.256Z,24.00
2019-03-23T02:59:22.500Z,23.90
2019-03-23T03:00:27.612Z,23.90
2019-03-23T03:01:30.646Z,23.90
2019-03-23T03:02:33.907Z,23.90
2019-03-23T03:03:39.890Z,23.90
2019-03-23T03:04:43.265Z,23.90
2019-03-23T03:05:46.542Z,23.90
2019-03-23T03:06:49.948Z,24.00
2019-03-23T03:07:53.659Z,23.90
2019-03-23T03:08:56.971Z,23.90
2019-03-23T03:10:02.294Z,23.90
2019-03-23T03:11:05.604Z,23.80
2019-03-23T03:12:08.887Z,23.90
2019-03-23T03:13:12.212Z,23.90
2019-03-23T03:14:18.075Z,23.90
2019-03-23T03:15:21.652Z,23.90
2019-03-23T03:16:24.963Z,24.00
2019-03-23T03:17:28.179Z,24.00
2019-03-23T03:18:33.276Z,24.00
2019-03-23T03:19:36.508Z,24.00
2019-03-23T03:20:40.337Z,23.90
2019-03-23T03:21:43.624Z,23.90
2019-03-23T03:22:49.896Z,23.90
2019-03-23T03:23:53.190Z,23.90
2019-03-23T03:24:56.535Z,23.90
2019-03-23T03:25:59.796Z,23.90
2019-03-23T03:27:05.187Z,24.00
2019-03-23T03:28:08.547Z,23.90
2019-03-23T03:29:13.418Z,23.90
2019-03-23T03:30:16.812Z,23.90
2019-03-23T03:31:22.768Z,23.90
2019-03-23T03:32:26.598Z,23.90
2019-03-23T03:33:29.884Z,23.90
2019-03-23T03:34:37.136Z,23.90
2019-03-23T03:35:40.396Z,23.90
2019-03-23T03:36:46.672Z,23.80
2019-03-23T03:37:56.370Z,23.90
2019-03-23T03:38:55.535Z,23.80
2019-03-23T03:39:58.751Z,23.80
2019-03-23T03:41:01.989Z,23.90
2019-03-23T03:42:05.678Z,23.90
2019-03-23T03:43:08.984Z,23.90
2019-03-23T03:44:12.293Z,23.90
2019-03-23T03:45:26.860Z,23.80
2019-03-23T03:46:30.187Z,23.90
2019-03-23T03:47:36.055Z,23.90
2019-03-23T03:48:39.298Z,23.90
2019-03-23T03:49:42.533Z,23.90
2019-03-23T03:50:45.815Z,23.90
2019-03-23T03:51:50.935Z,23.90
2019-03-23T03:52:54.270Z,23.90
2019-03-23T03:53:59.283Z,23.90
2019-03-23T03:55:02.956Z,23.90
2019-03-23T03:56:06.292Z,23.90
2019-03-23T03:57:10.006Z,23.80
2019-03-23T03:58:13.281Z,23.90
2019-03-23T03:59:16.846Z,23.90
2019-03-23T04:00:20.193Z,23.90
2019-03-23T04:01:25.436Z,23.90
2019-03-23T04:02:28.775Z,23.90
2019-03-23T04:03:35.378Z,23.90
2019-03-23T04:04:40.388Z,23.80
2019-03-23T04:05:43.632Z,23.80
2019-03-23T04:06:46.976Z,23.80
2019-03-23T04:07:50.215Z,23.80
2019-03-23T04:08:53.850Z,23.80
2019-03-23T04:09:57.055Z,23.90
2019-03-23T04:11:00.417Z,23.90
2019-03-23T04:12:03.997Z,23.90
2019-03-23T04:13:07.387Z,23.80
2019-03-23T04:14:13.619Z,23.80
2019-03-23T04:15:19.130Z,23.90
2019-03-23T04:16:22.180Z,23.90
2019-03-23T04:17:25.478Z,23.90
2019-03-23T04:18:28.831Z,23.90
2019-03-23T04:19:32.944Z,23.90
2019-03-23T04:20:36.230Z,23.90
2019-03-23T04:21:39.842Z,23.90
2019-03-23T04:22:44.799Z,23.90
2019-03-23T04:23:48.202Z,23.90
2019-03-23T04:24:51.504Z,23.80
2019-03-23T04:25:55.013Z,23.80
2019-03-23T04:27:00.219Z,23.80
2019-03-23T04:28:03.859Z,23.80
2019-03-23T04:29:07.171Z,23.90
2019-03-23T04:30:10.974Z,23.80
2019-03-23T04:31:17.170Z,23.80
2019-03-23T04:32:20.436Z,23.80
2019-03-23T04:33:24.993Z,23.80
2019-03-23T04:34:28.561Z,23.80
2019-03-23T04:35:37.979Z,23.80
2019-03-23T04:36:41.561Z,23.90
2019-03-23T04:37:44.933Z,23.90
2019-03-23T04:38:48.211Z,23.90
2019-03-23T04:39:54.395Z,23.80
2019-03-23T04:40:57.645Z,23.90
2019-03-23T04:42:01.335Z,23.80
2019-03-23T04:43:04.584Z,23.80
2019-03-23T04:44:09.519Z,23.80
2019-03-23T04:45:12.780Z,23.70
2019-03-23T04:46:16.010Z,23.80
2019-03-23T04:47:19.295Z,23.90
2019-03-23T04:48:24.282Z,23.80
2019-03-23T04:49:27.523Z,23.80
2019-03-23T04:50:30.811Z,23.90
2019-03-23T04:51:34.066Z,23.80
2019-03-23T04:52:40.274Z,23.80
2019-03-23T04:53:44.407Z,23.80
2019-03-23T04:54:47.936Z,23.70
2019-03-23T04:55:52.000Z,23.80
2019-03-23T04:56:55.286Z,23.90
2019-03-23T04:57:58.633Z,23.80
2019-03-23T04:59:01.984Z,23.90
2019-03-23T05:00:07.551Z,23.80
2019-03-23T05:01:10.763Z,23.80
2019-03-23T05:02:13.997Z,23.80
2019-03-23T05:03:17.563Z,23.80
2019-03-23T05:04:20.800Z,23.80
2019-03-23T05:05:25.996Z,23.80
2019-03-23T05:06:29.301Z,23.80
2019-03-23T05:07:35.095Z,23.80
2019-03-23T05:08:38.315Z,23.80
2019-03-23T05:09:41.530Z,23.80
2019-03-23T05:10:44.951Z,23.80
2019-03-23T05:11:50.951Z,23.80
2019-03-23T05:12:54.179Z,23.70
2019-03-23T05:13:57.523Z,23.80
2019-03-23T05:15:01.158Z,23.80
2019-03-23T05:16:04.555Z,23.90
2019-03-23T05:17:08.138Z,23.80
2019-03-23T05:18:11.350Z,23.80
2019-03-23T05:19:14.624Z,23.80
2019-03-23T05:20:31.014Z,23.80
2019-03-23T05:21:34.255Z,23.70
2019-03-23T05:22:39.363Z,23.70
2019-03-23T05:23:42.660Z,23.80
2019-03-23T05:24:47.662Z,23.80
2019-03-23T05:25:51.456Z,23.80
2019-03-23T05:26:57.579Z,23.80
2019-03-23T05:28:00.823Z,23.80
2019-03-23T05:29:06.911Z,23.80
2019-03-23T05:30:16.335Z,23.80
2019-03-23T05:31:19.663Z,23.80
2019-03-23T05:32:22.873Z,23.80
2019-03-23T05:33:26.118Z,23.90
2019-03-23T05:34:29.399Z,23.90
2019-03-23T05:35:32.740Z,23.90
2019-03-23T05:36:37.720Z,23.80
2019-03-23T05:37:41.298Z,23.80
2019-03-23T05:38:46.442Z,23.80
2019-03-23T05:39:49.670Z,23.90
2019-03-23T05:40:55.723Z,23.80
2019-03-23T05:41:59.329Z,23.80
2019-03-23T05:43:04.401Z,23.80
2019-03-23T05:44:07.768Z,23.90
2019-03-23T05:45:14.059Z,23.80
2019-03-23T05:46:18.160Z,23.80
2019-03-23T05:47:21.442Z,23.80
2019-03-23T05:48:24.910Z,23.80
2019-03-23T05:49:28.555Z,23.80
2019-03-23T05:50:32.999Z,23.80
2019-03-23T05:51:39.763Z,23.80
2019-03-23T05:52:43.071Z,23.80
2019-03-23T05:53:46.354Z,23.90
2019-03-23T05:54:49.610Z,23.90
2019-03-23T05:55:54.643Z,23.90
2019-03-23T05:56:57.855Z,23.90
2019-03-23T05:58:01.619Z,23.80
2019-03-23T05:59:04.903Z,23.80
2019-03-23T06:00:08.683Z,23.80
2019-03-23T06:01:11.924Z,23.70
2019-03-23T06:02:15.207Z,23.80
2019-03-23T06:03:18.435Z,23.80
2019-03-23T06:04:21.687Z,23.80
2019-03-23T06:05:24.973Z,23.80
2019-03-23T06:06:29.176Z,23.80
2019-03-23T06:07:32.451Z,23.80
2019-03-23T06:08:36.183Z,23.80
2019-03-23T06:09:41.888Z,23.80
2019-03-23T06:10:45.611Z,23.80
2019-03-23T06:11:51.595Z,23.80
2019-03-23T06:12:55.846Z,23.80
2019-03-23T06:13:59.148Z,23.80
2019-03-23T06:15:02.748Z,23.80
2019-03-23T06:16:05.984Z,23.80
2019-03-23T06:17:09.467Z,23.80
2019-03-23T06:18:12.959Z,23.90
2019-03-23T06:19:16.275Z,23.90
2019-03-23T06:20:19.552Z,23.90
2019-03-23T06:21:22.788Z,23.80
2019-03-23T06:22:26.318Z,23.90
2019-03-23T06:23:30.483Z,23.90
2019-03-23T06:24:33.791Z,23.90
2019-03-23T06:25:37.271Z,23.80
2019-03-23T06:26:40.503Z,23.90
2019-03-23T06:27:43.739Z,23.90
2019-03-23T06:28:46.975Z,24.00
2019-03-23T06:29:50.263Z,24.00
2019-03-23T06:30:53.811Z,24.00
2019-03-23T06:31:57.170Z,24.00
2019-03-23T06:33:00.389Z,24.00
2019-03-23T06:34:03.635Z,24.00
2019-03-23T06:35:08.640Z,24.00
2019-03-23T06:36:11.855Z,24.10
2019-03-23T06:37:17.531Z,24.10
2019-03-23T06:38:20.743Z,24.20
2019-03-23T06:39:23.987Z,24.20
2019-03-23T06:40:27.487Z,24.20
2019-03-23T06:41:32.464Z,24.20
2019-03-23T06:42:35.712Z,24.20
2019-03-23T06:43:39.492Z,24.30
2019-03-23T06:44:42.805Z,24.30
2019-03-23T06:45:46.242Z,24.40
2019-03-23T06:46:49.851Z,24.50
2019-03-23T06:47:55.019Z,24.60
2019-03-23T06:48:58.526Z,24.60
2019-03-23T06:50:02.042Z,24.60
2019-03-23T06:51:05.419Z,24.60
2019-03-23T06:52:08.886Z,24.70
2019-03-23T06:53:12.119Z,24.70
2019-03-23T06:54:15.323Z,24.70
2019-03-23T06:55:18.759Z,24.70
2019-03-23T06:56:24.667Z,24.80
2019-03-23T06:57:27.943Z,24.80
2019-03-23T06:58:31.477Z,24.90
2019-03-23T06:59:34.694Z,24.90
2019-03-23T07:00:38.229Z,24.90
2019-03-23T07:01:41.875Z,25.00
2019-03-23T07:02:47.976Z,25.00
2019-03-23T07:03:51.611Z,25.00
2019-03-23T07:04:54.848Z,25.00
2019-03-23T07:05:58.070Z,25.00
2019-03-23T07:07:01.536Z,25.00
2019-03-23T07:08:04.826Z,24.90
2019-03-23T07:09:16.253Z,24.90
2019-03-23T07:10:15.896Z,24.90
2019-03-23T07:11:19.109Z,25.00
2019-03-23T07:12:22.383Z,25.00
2019-03-23T07:13:27.811Z,25.00
2019-03-23T07:14:31.052Z,25.00
2019-03-23T07:15:37.143Z,25.00
2019-03-23T07:16:40.699Z,25.00
2019-03-23T07:17:43.923Z,25.10
2019-03-23T07:18:47.710Z,25.10
2019-03-23T07:19:53.466Z,25.10
2019-03-23T07:20:56.754Z,25.10
2019-03-23T07:21:59.960Z,25.20
2019-03-23T07:23:04.180Z,25.20
2019-03-23T07:24:08.269Z,25.20
2019-03-23T07:25:11.687Z,25.20
2019-03-23T07:26:15.288Z,25.20
2019-03-23T07:27:18.574Z,25.30
2019-03-23T07:28:21.898Z,25.30
2019-03-23T07:29:25.376Z,25.30
2019-03-23T07:30:28.595Z,25.40
2019-03-23T07:31:32.411Z,25.40
2019-03-23T07:32:38.195Z,25.40
2019-03-23T07:33:41.524Z,25.30
2019-03-23T07:34:45.423Z,25.30
2019-03-23T07:35:48.731Z,25.30
2019-03-23T07:36:51.967Z,25.30
2019-03-23T07:37:55.260Z,25.30
2019-03-23T07:38:58.471Z,25.30
2019-03-23T07:40:01.764Z,25.30
2019-03-23T07:41:06.822Z,25.40
2019-03-23T07:42:10.116Z,25.30
2019-03-23T07:43:16.210Z,25.40
2019-03-23T07:44:19.811Z,25.40
2019-03-23T07:45:23.403Z,25.40
2019-03-23T07:46:26.632Z,25.40
2019-03-23T07:47:29.839Z,25.40
2019-03-23T07:48:33.218Z,25.40
2019-03-23T07:49:36.823Z,25.40
2019-03-23T07:50:40.069Z,25.50
2019-03-23T07:51:46.751Z,25.50
2019-03-23T07:52:50.008Z,25.40
2019-03-23T07:53:53.285Z,25.40
2019-03-23T07:54:59.952Z,25.40
2019-03-23T07:56:03.187Z,25.40
2019-03-23T07:57:06.691Z,25.40
2019-03-23T07:58:09.923Z,25.40
2019-03-23T07:59:13.720Z,25.40
2019-03-23T08:00:19.146Z,25.40
2019-03-23T08:01:22.423Z,25.40
2019-03-23T08:02:25.682Z,25.50
2019-03-23T08:03:29.306Z,25.40
2019-03-23T08:04:35.424Z,25.40
2019-03-23T08:05:38.631Z,25.50
2019-03-23T08:06:43.720Z,25.50
2019-03-23T08:07:46.952Z,25.60
2019-03-23T08:08:50.234Z,25.50
2019-03-23T08:09:53.571Z,25.60
2019-03-23T08:10:58.558Z,25.60
2019-03-23T08:12:01.891Z,25.60
2019-03-23T08:13:06.899Z,25.60
2019-03-23T08:14:10.135Z,25.60
2019-03-23T08:15:13.376Z,25.60
2019-03-23T08:16:16.991Z,25.50
2019-03-23T08:17:25.783Z,25.50
2019-03-23T08:18:30.884Z,25.60
2019-03-23T08:19:34.368Z,25.50
2019-03-23T08:20:37.605Z,25.50
2019-03-23T08:21:40.912Z,25.50
2019-03-23T08:22:44.115Z,25.50
2019-03-23T08:23:47.352Z,25.50
2019-03-23T08:24:51.011Z,25.50
2019-03-23T08:25:54.320Z,25.50
2019-03-23T08:26:57.663Z,25.50
2019-03-23T08:28:00.891Z,25.50
2019-03-23T08:29:04.174Z,25.50
2019-03-23T08:30:10.227Z,25.50
2019-03-23T08:31:13.584Z,25.40
2019-03-23T08:32:17.430Z,25.50
2019-03-23T08:33:20.685Z,25.50
2019-03-23T08:34:26.767Z,25.50
2019-03-23T08:35:29.990Z,25.50
2019-03-23T08:36:35.683Z,25.50
2019-03-23T08:37:38.886Z,25.50
2019-03-23T08:38:42.386Z,25.50
2019-03-23T08:39:48.620Z,25.50
2019-03-23T08:40:50.551Z,25.50
2019-03-23T08:41:53.907Z,25.50
2019-03-23T08:42:58.594Z,25.50
2019-03-23T08:44:01.854Z,25.50
2019-03-23T08:45:06.997Z,25.40
2019-03-23T08:46:10.243Z,25.50
2019-03-23T08:47:16.231Z,25.50
2019-03-23T08:48:19.442Z,25.40
2019-03-23T08:49:23.035Z,25.40
2019-03-23T08:50:26.706Z,25.40
2019-03-23T08:51:29.991Z,25.40
2019-03-23T08:52:33.387Z,25.40
2019-03-23T08:53:36.670Z,25.40
2019-03-23T08:54:39.909Z,25.40
2019-03-23T08:55:43.207Z,25.50
2019-03-23T08:56:46.452Z,25.50
2019-03-23T08:57:49.847Z,25.50
2019-03-23T08:58:53.479Z,25.40
2019-03-23T08:59:56.811Z,25.40
2019-03-23T09:01:00.139Z,25.40
2019-03-23T09:02:05.155Z,25.40
2019-03-23T09:03:08.375Z,25.50
2019-03-23T09:04:14.350Z,25.50
2019-03-23T09:05:17.602Z,25.50
2019-03-23T09:06:20.879Z,25.50
2019-03-23T09:07:24.261Z,25.50
2019-03-23T09:08:27.828Z,25.50
2019-03-23T09:09:31.031Z,25.50
2019-03-23T09:10:37.195Z,25.50
2019-03-23T09:11:40.398Z,25.50
2019-03-23T09:13:49.035Z,25.40
2019-03-23T09:14:54.303Z,25.50
2019-03-23T09:15:57.542Z,25.50
2019-03-23T09:17:03.299Z,25.50
2019-03-23T09:18:07.531Z,25.50
2019-03-23T09:19:13.683Z,25.50
2019-03-23T09:20:16.886Z,25.40
2019-03-23T09:21:20.097Z,25.40
2019-03-23T09:22:23.340Z,25.40
2019-03-23T09:23:26.927Z,25.50
2019-03-23T09:24:30.760Z,25.50
2019-03-23T09:25:34.155Z,25.50
2019-03-23T09:26:37.359Z,25.50
2019-03-23T09:27:40.602Z,25.50
2019-03-23T09:28:43.941Z,25.40
2019-03-23T09:29:48.943Z,25.40
2019-03-23T09:30:52.487Z,25.40
2019-03-23T09:31:55.723Z,25.40
2019-03-23T09:32:58.940Z,25.40
2019-03-23T09:34:02.142Z,25.40
2019-03-23T09:35:05.382Z,25.40
2019-03-23T09:36:10.351Z,25.40
2019-03-23T09:37:13.642Z,25.40
2019-03-23T09:38:19.703Z,25.40
2019-03-23T09:39:22.907Z,25.40
2019-03-23T09:40:26.451Z,25.30
2019-03-23T09:41:30.639Z,25.30
2019-03-23T09:42:35.699Z,25.40
2019-03-23T09:43:39.270Z,25.40
2019-03-23T09:44:42.470Z,25.40
2019-03-23T09:45:45.859Z,25.30
2019-03-23T09:46:49.260Z,25.40
2019-03-23T09:47:52.499Z,25.40
2019-03-23T09:48:58.786Z,25.40
2019-03-23T09:50:03.040Z,25.30
2019-03-23T09:51:06.376Z,25.30
2019-03-23T09:52:09.678Z,25.40
2019-03-23T09:53:15.990Z,25.30
2019-03-23T09:54:19.319Z,25.30
2019-03-23T09:55:25.439Z,25.40
2019-03-23T09:56:29.003Z,25.30
2019-03-23T09:57:32.239Z,25.30
2019-03-23T09:58:35.441Z,25.30
2019-03-23T09:59:38.643Z,25.30
2019-03-23T10:00:42.256Z,25.30
2019-03-23T10:01:45.827Z,25.30
2019-03-23T10:02:49.102Z,25.30
2019-03-23T10:03:55.059Z,25.30
2019-03-23T10:04:58.320Z,25.20
2019-03-23T10:06:05.977Z,25.20
2019-03-23T10:07:13.935Z,25.20
2019-03-23T10:08:17.199Z,25.20
2019-03-23T10:09:23.472Z,25.20
2019-03-23T10:10:26.723Z,25.20
2019-03-23T10:11:30.078Z,25.20
2019-03-23T10:12:33.295Z,25.20
2019-03-23T10:13:37.003Z,25.20
2019-03-23T10:14:41.107Z,25.20
2019-03-23T10:15:47.200Z,25.20
2019-03-23T10:16:50.791Z,25.20
2019-03-23T10:17:57.015Z,25.20
2019-03-23T10:19:01.087Z,25.20
2019-03-23T10:20:05.645Z,25.20
2019-03-23T10:21:11.522Z,25.20
2019-03-23T10:22:14.783Z,25.20
2019-03-23T10:23:20.660Z,25.20
2019-03-23T10:24:23.951Z,25.20
2019-03-23T10:25:27.268Z,25.20
2019-03-23T10:26:30.570Z,25.20
2019-03-23T10:27:35.582Z,25.20
2019-03-23T10:28:38.805Z,25.20
2019-03-23T10:29:43.562Z,25.20
2019-03-23T10:30:46.791Z,25.10
2019-03-23T10:31:52.903Z,25.10
2019-03-23T10:32:56.131Z,25.20
2019-03-23T10:33:59.452Z,25.20
2019-03-23T10:35:04.704Z,25.20
2019-03-23T10:36:08.296Z,25.10
2019-03-23T10:37:16.067Z,25.10
2019-03-23T10:38:20.104Z,25.10
2019-03-23T10:39:23.455Z,25.10
2019-03-23T10:40:32.532Z,25.10
2019-03-23T10:41:31.591Z,25.10
2019-03-23T10:42:34.921Z,25.10
2019-03-23T10:43:39.118Z,25.10
2019-03-23T10:44:42.744Z,25.10
2019-03-23T10:45:46.835Z,25.10
2019-03-23T10:46:50.236Z,25.10
2019-03-23T10:47:53.623Z,25.10
2019-03-23T10:48:56.867Z,25.10
2019-03-23T10:50:00.176Z,25.10
2019-03-23T10:51:03.531Z,25.10
2019-03-23T10:52:06.767Z,25.10
2019-03-23T10:53:09.995Z,25.10
2019-03-23T10:54:13.243Z,25.10
2019-03-23T10:55:16.479Z,25.10
2019-03-23T10:56:22.648Z,25.10
2019-03-23T10:57:25.880Z,25.10
2019-03-23T10:58:31.978Z,25.10
2019-03-23T10:59:36.966Z,25.10
2019-03-23T11:00:40.203Z,25.10
2019-03-23T11:01:45.170Z,25.10
2019-03-23T11:02:48.405Z,25.10
2019-03-23T11:03:51.648Z,25.10
2019-03-23T11:04:54.890Z,25.10
2019-03-23T11:05:58.211Z,25.10
2019-03-23T11:07:01.731Z,25.10
2019-03-23T11:08:04.935Z,25.10
2019-03-23T11:09:10.117Z,25.10
2019-03-23T11:10:13.419Z,25.10
2019-03-23T11:11:16.686Z,25.10
2019-03-23T11:12:19.963Z,25.10
2019-03-23T11:13:23.195Z,25.10
2019-03-23T11:14:26.415Z,25.10
2019-03-23T11:15:29.652Z,25.10
2019-03-23T11:16:32.972Z,25.10
2019-03-23T11:17:36.561Z,25.00
2019-03-23T11:18:39.800Z,25.10
2019-03-23T11:19:43.011Z,25.00
2019-03-23T11:20:46.218Z,25.00
2019-03-23T11:21:49.570Z,25.00
2019-03-23T11:22:55.607Z,25.10
2019-03-23T11:23:58.935Z,25.10
2019-03-23T11:25:03.283Z,25.00
2019-03-23T11:26:08.407Z,24.90
2019-03-23T11:27:11.772Z,25.00
2019-03-23T11:28:16.798Z,25.00
2019-03-23T11:29:20.071Z,25.00
2019-03-23T11:30:29.239Z,25.00
2019-03-23T11:31:32.485Z,25.10
2019-03-23T11:32:35.762Z,25.00
2019-03-23T11:33:38.971Z,25.00
2019-03-23T11:34:42.287Z,25.00
2019-03-23T11:35:45.560Z,25.00
2019-03-23T11:36:48.864Z,25.00
2019-03-23T11:37:52.609Z,25.00
2019-03-23T11:38:56.913Z,25.00
2019-03-23T11:40:00.321Z,25.00
2019-03-23T11:41:06.281Z,25.00
2019-03-23T11:42:09.906Z,25.00
2019-03-23T11:43:15.711Z,25.00
2019-03-23T11:44:18.907Z,25.00
2019-03-23T11:45:22.151Z,25.00
2019-03-23T11:46:25.387Z,25.00
2019-03-23T11:47:28.719Z,25.10
2019-03-23T11:48:32.847Z,25.10
2019-03-23T11:49:36.086Z,25.00
2019-03-23T11:50:40.320Z,25.00
2019-03-23T11:51:43.811Z,25.10
2019-03-23T11:52:47.319Z,25.00
2019-03-23T11:53:51.608Z,25.00
2019-03-23T11:54:54.979Z,25.00
2019-03-23T11:55:58.263Z,24.90
2019-03-23T11:57:01.585Z,24.90
2019-03-23T11:58:06.646Z,25.00
2019-03-23T11:59:09.975Z,25.00
2019-03-23T12:00:14.295Z,25.00
2019-03-23T12:01:17.895Z,24.90
2019-03-23T12:02:21.166Z,24.90
2019-03-23T12:03:24.692Z,24.90
2019-03-23T12:04:27.924Z,25.00
2019-03-23T12:05:31.232Z,25.00
2019-03-23T12:06:34.468Z,25.00
2019-03-23T12:07:37.695Z,25.00
2019-03-23T12:08:42.758Z,25.00
2019-03-23T12:09:46.137Z,24.90
2019-03-23T12:11:02.446Z,24.90
2019-03-23T12:11:57.935Z,25.00
2019-03-23T12:13:01.644Z,25.00
2019-03-23T12:14:05.920Z,24.90
2019-03-23T12:15:10.931Z,24.90
2019-03-23T12:16:14.154Z,24.90
2019-03-23T12:17:17.366Z,24.90
2019-03-23T12:18:20.629Z,25.00
2019-03-23T12:19:24.045Z,25.00
2019-03-23T12:20:27.300Z,25.00
2019-03-23T12:21:33.386Z,25.00
2019-03-23T12:22:36.615Z,24.90
2019-03-23T12:23:41.669Z,24.90
2019-03-23T12:24:45.197Z,24.90
2019-03-23T12:25:49.367Z,24.90
2019-03-23T12:26:52.594Z,24.90
2019-03-23T12:27:56.731Z,24.90
2019-03-23T12:28:59.975Z,24.90
2019-03-23T12:30:07.856Z,24.90
2019-03-23T12:31:12.918Z,24.90
2019-03-23T12:32:16.119Z,24.90
2019-03-23T12:33:21.408Z,24.90
2019-03-23T12:34:24.273Z,24.90
2019-03-23T12:35:27.552Z,24.90
2019-03-23T12:36:31.140Z,24.90
2019-03-23T12:37:34.535Z,24.80
2019-03-23T12:38:37.890Z,24.80
2019-03-23T12:39:41.123Z,24.80
2019-03-23T12:40:44.347Z,24.80
2019-03-23T12:41:47.843Z,24.80
2019-03-23T12:42:51.371Z,24.80
2019-03-23T12:43:54.661Z,24.80
2019-03-23T12:45:00.715Z,24.80
2019-03-23T12:46:04.306Z,24.80
2019-03-23T12:47:07.631Z,24.80
2019-03-23T12:48:10.887Z,24.70
2019-03-23T12:49:17.482Z,24.70
2019-03-23T12:50:20.719Z,24.70
2019-03-23T12:51:23.959Z,24.70
2019-03-23T12:52:27.158Z,24.70
2019-03-23T12:53:33.211Z,24.80
2019-03-23T12:54:36.418Z,24.90
2019-03-23T12:55:39.667Z,24.80
2019-03-23T12:56:42.866Z,24.80
2019-03-23T12:57:46.103Z,24.80
2019-03-23T12:58:49.345Z,24.70
2019-03-23T12:59:55.335Z,24.70
2019-03-23T13:00:58.577Z,24.70
2019-03-23T13:02:01.855Z,24.70
2019-03-23T13:03:05.084Z,24.70
2019-03-23T13:04:08.319Z,24.70
2019-03-23T13:05:11.525Z,24.70
2019-03-23T13:06:14.861Z,24.70
2019-03-23T13:07:18.087Z,24.80
2019-03-23T13:08:21.366Z,24.70
2019-03-23T13:09:25.500Z,24.70
2019-03-23T13:10:28.850Z,24.70
2019-03-23T13:11:35.523Z,24.70
2019-03-23T13:12:39.704Z,24.70
2019-03-23T13:13:43.253Z,24.60
2019-03-23T13:14:46.761Z,24.60
2019-03-23T13:15:50.145Z,24.60
2019-03-23T13:16:53.358Z,24.60
2019-03-23T13:17:56.591Z,24.60
2019-03-23T13:18:59.798Z,24.70
2019-03-23T13:20:03.863Z,24.70
2019-03-23T13:21:07.160Z,24.70
2019-03-23T13:22:10.807Z,24.70
2019-03-23T13:23:15.403Z,24.70
2019-03-23T13:24:18.696Z,24.70
2019-03-23T13:25:24.618Z,24.70
2019-03-23T13:26:28.205Z,24.70
2019-03-23T13:27:31.408Z,24.70
2019-03-23T13:28:34.643Z,24.70
2019-03-23T13:29:40.579Z,24.60
2019-03-23T13:30:43.824Z,24.70
2019-03-23T13:31:50.044Z,24.70
2019-03-23T13:32:53.251Z,24.70
2019-03-23T13:33:56.547Z,24.60
2019-03-23T13:34:59.747Z,24.60
2019-03-23T13:36:03.387Z,24.60
2019-03-23T13:37:06.711Z,24.60
2019-03-23T13:38:12.612Z,24.70
2019-03-23T13:39:15.871Z,24.70
2019-03-23T13:40:19.082Z,24.70
2019-03-23T13:41:22.354Z,24.60
2019-03-23T13:42:28.503Z,24.60
2019-03-23T13:43:31.984Z,24.70
2019-03-23T13:44:35.215Z,24.70